Time;durP1;ratioP1;P1;durP2;ratioP2;P2;SDS_P1;SDS_P2;PMS_P1;PMS_P2;Temp;Humidity;BMP_temperature;BMP_pressure;BME280_temperature;BME280_humidity;BME280_pressure;Samples;Min_cycle;Max_cycle;Signal;HPM_P1;HPM_P2
2023/07/18 00:01:39;;;;;;;3.17;1.60;;;;;;;18.52;65.79;156122.81;4928391;29;20861;-79
2023/07/18 00:04:25;;;;;;;3.40;1.30;;;;;;;18.46;63.93;156105.81;4910627;29;20613;-79
2023/07/18 00:07:10;;;;;;;2.47;1.50;;;;;;;18.45;66.63;156103.22;4914121;29;20476;-79
2023/07/18 00:09:56;;;;;;;1.57;1.20;;;;;;;18.44;68.64;156100.59;4910558;29;20556;-79
2023/07/18 00:12:42;;;;;;;4.90;1.17;;;;;;;18.40;67.53;156090.22;4914516;29;20540;-79
2023/07/18 00:15:28;;;;;;;3.20;1.30;;;;;;;18.37;67.37;156082.38;4914874;29;20515;-79
2023/07/18 00:18:14;;;;;;;2.30;1.10;;;;;;;18.34;62.23;156074.56;4909129;29;20483;-78
2023/07/18 00:20:59;;;;;;;2.57;1.10;;;;;;;18.43;60.33;156097.97;4903354;29;20460;-78
2023/07/18 00:23:45;;;;;;;1.60;1.20;;;;;;;18.59;65.75;156139.72;4911899;29;20517;-78
2023/07/18 00:26:30;;;;;;;2.60;1.10;;;;;;;18.48;62.02;156111.09;4912105;29;20447;-78
2023/07/18 00:29:16;;;;;;;2.00;1.27;;;;;;;18.48;65.95;156111.09;4910676;29;20472;-79
2023/07/18 00:32:02;;;;;;;1.93;1.40;;;;;;;18.40;65.80;156091.47;4914272;29;20441;-79
2023/07/18 00:34:48;;;;;;;2.90;1.87;;;;;;;18.32;67.66;156069.38;4912479;29;20929;-78
2023/07/18 00:37:33;;;;;;;3.80;1.30;;;;;;;18.15;63.82;156027.69;4895294;29;20497;-78
2023/07/18 00:40:18;;;;;;;4.87;1.70;;;;;;;18.09;65.24;156012.03;4912771;29;20429;-78
2023/07/18 00:43:04;;;;;;;1.50;1.20;;;;;;;18.02;66.16;155992.53;4899486;29;20436;-78
2023/07/18 00:45:51;;;;;;;3.33;1.40;;;;;;;17.94;65.94;155973.00;4896129;29;20460;-78
2023/07/18 00:48:36;;;;;;;2.23;1.63;;;;;;;17.88;66.80;155957.34;4913190;29;21013;-78
2023/07/18 00:51:24;;;;;;;2.27;1.67;;;;;;;17.77;65.30;155927.38;4913674;29;20979;-78
2023/07/18 00:54:09;;;;;;;2.00;1.27;;;;;;;17.69;66.16;155907.88;4916344;29;20976;-78
2023/07/18 00:56:54;;;;;;;5.30;1.67;;;;;;;17.62;65.88;155889.66;4910285;29;20468;-78
2023/07/18 00:59:40;;;;;;;2.33;1.60;;;;;;;17.59;66.97;155883.16;4914448;29;20520;-79
2023/07/18 01:02:26;;;;;;;3.37;1.70;;;;;;;17.57;68.94;155877.97;4891059;29;20524;-78
2023/07/18 01:05:16;;;;;;;2.30;1.50;;;;;;;17.49;68.14;155855.78;4912585;29;20453;-78
2023/07/18 01:08:03;;;;;;;2.83;1.80;;;;;;;17.43;68.62;155840.13;4898293;29;20560;-78
2023/07/18 01:10:48;;;;;;;2.40;1.50;;;;;;;17.38;68.44;155827.13;4908559;29;21093;-78
2023/07/18 01:13:34;;;;;;;3.90;1.60;;;;;;;17.35;69.86;155819.31;4903734;29;20601;-78
2023/07/18 01:16:19;;;;;;;2.10;1.50;;;;;;;17.25;69.21;155794.59;4899466;29;20561;-78
2023/07/18 01:19:05;;;;;;;3.10;1.30;;;;;;;17.22;69.37;155786.78;4894120;29;20976;-78
2023/07/18 01:21:52;;;;;;;1.90;1.37;;;;;;;17.18;70.42;155776.41;4909421;29;20509;-78
2023/07/18 01:24:37;;;;;;;3.10;1.93;;;;;;;17.14;71.95;155764.66;4898751;29;20493;-78
2023/07/18 01:27:23;;;;;;;2.30;1.40;;;;;;;17.09;73.56;155752.94;4903900;29;20961;-78
2023/07/18 01:30:09;;;;;;;2.67;1.70;;;;;;;17.00;70.80;155729.50;4909994;29;20926;-78
2023/07/18 01:32:54;;;;;;;2.47;1.47;;;;;;;16.96;70.97;155719.13;4892988;29;20836;-78
2023/07/18 01:35:40;;;;;;;2.73;1.40;;;;;;;16.92;70.55;155710.00;4902828;29;20444;-78
2023/07/18 01:38:29;;;;;;;2.00;1.40;;;;;;;16.90;70.57;155704.81;4908049;29;20519;-78
2023/07/18 01:41:14;;;;;;;3.13;1.30;;;;;;;16.88;71.25;155699.63;4910088;29;20566;-78
2023/07/18 01:43:59;;;;;;;3.03;1.40;;;;;;;16.88;71.00;155698.31;4910735;29;20451;-78
2023/07/18 01:46:45;;;;;;;4.00;1.70;;;;;;;16.93;72.06;155711.31;4898969;29;20468;-78
2023/07/18 01:49:31;;;;;;;2.33;1.60;;;;;;;16.91;72.23;155707.44;4908025;29;20659;-78
2023/07/18 01:52:17;;;;;;;2.80;1.27;;;;;;;16.85;70.54;155691.81;4909925;29;20557;-78
2023/07/18 01:55:05;;;;;;;3.53;1.40;;;;;;;16.86;71.43;155694.41;4911269;29;20898;-78
2023/07/18 01:57:51;;;;;;;5.27;1.90;;;;;;;16.83;72.09;155686.59;4904171;29;20984;-79
2023/07/18 02:00:36;;;;;;;2.70;1.37;;;;;;;16.78;72.56;155672.28;4898543;29;20452;-78
2023/07/18 02:03:21;;;;;;;2.40;1.50;;;;;;;16.70;72.30;155652.78;4912874;29;20525;-78
2023/07/18 02:06:10;;;;;;;3.00;1.73;;;;;;;16.65;72.25;155639.78;4892791;29;20853;-78
2023/07/18 02:08:56;;;;;;;3.10;1.40;;;;;;;16.60;72.03;155626.72;4893595;29;20866;-78
2023/07/18 02:11:42;;;;;;;3.00;1.80;;;;;;;16.61;72.53;155629.34;4909167;29;20904;-78
2023/07/18 02:14:27;;;;;;;4.07;2.10;;;;;;;16.58;72.55;155620.22;4895040;29;20532;-78
2023/07/18 02:17:13;;;;;;;1.70;1.33;;;;;;;16.54;73.49;155611.16;4894221;29;20464;-78
2023/07/18 02:19:58;;;;;;;3.20;1.50;;;;;;;16.43;73.20;155582.47;4908110;29;20963;-78
2023/07/18 02:22:45;;;;;;;2.53;1.57;;;;;;;16.40;74.74;155574.66;4902832;29;20999;-78
2023/07/18 02:25:30;;;;;;;2.50;1.90;;;;;;;16.38;74.75;155569.47;4896265;29;20537;-79
2023/07/18 02:28:17;;;;;;;3.27;1.63;;;;;;;16.35;75.39;155561.66;4908809;29;20460;-79
2023/07/18 02:31:02;;;;;;;5.03;1.63;;;;;;;16.34;75.11;155559.06;4906612;29;20833;-79
2023/07/18 02:33:48;;;;;;;3.43;1.87;;;;;;;16.27;73.31;155542.16;4909070;29;20460;-79
2023/07/18 02:36:34;;;;;;;2.73;1.20;;;;;;;16.26;74.14;155539.56;4911648;29;20421;-79
2023/07/18 02:39:19;;;;;;;2.37;1.93;;;;;;;16.25;73.77;155536.97;4892385;29;20925;-79
2023/07/18 02:42:05;;;;;;;2.97;1.63;;;;;;;16.23;73.78;155530.47;4903198;29;20460;-79
2023/07/18 02:44:52;;;;;;;2.27;1.47;;;;;;;16.22;73.75;155527.84;4911255;29;20982;-78
2023/07/18 02:47:37;;;;;;;2.97;2.23;;;;;;;16.16;73.85;155512.25;4890814;29;20457;-79
2023/07/18 02:50:22;;;;;;;3.40;1.97;;;;;;;16.13;74.76;155504.44;4908431;29;20472;-78
2023/07/18 02:53:08;;;;;;;5.03;1.93;;;;;;;16.10;75.85;155496.63;4906426;29;20606;-79
2023/07/18 02:55:53;;;;;;;3.17;1.93;;;;;;;16.04;74.57;155482.38;4905988;29;20911;-79
2023/07/18 02:58:37;;;;;;;2.70;1.70;;;;;;;16.06;75.32;155487.56;4896133;29;20803;-78
2023/07/18 03:01:24;;;;;;;4.50;1.63;;;;;;;16.04;75.87;155481.06;4887814;29;20453;-79
2023/07/18 03:04:09;;;;;;;3.00;1.80;;;;;;;15.97;75.19;155464.13;4910976;29;21157;-79
2023/07/18 03:06:55;;;;;;;4.43;1.90;;;;;;;15.95;75.63;155457.63;4906934;29;20862;-78
2023/07/18 03:09:41;;;;;;;2.27;1.70;;;;;;;15.94;76.45;155456.31;4905033;29;20476;-79
2023/07/18 03:12:27;;;;;;;2.47;1.47;;;;;;;15.91;74.95;155447.25;4905976;29;20818;-79
2023/07/18 03:15:12;;;;;;;3.33;1.73;;;;;;;15.90;75.64;155445.94;4910566;29;20468;-79
2023/07/18 03:17:59;;;;;;;5.43;1.43;;;;;;;15.87;75.07;155438.13;4908098;29;20588;-78
2023/07/18 03:20:44;;;;;;;2.60;1.57;;;;;;;15.87;75.52;155436.81;4895063;29;21024;-79
2023/07/18 03:23:30;;;;;;;4.57;1.70;;;;;;;15.93;76.24;155452.44;4910427;29;20420;-79
2023/07/18 03:26:15;;;;;;;1.60;1.50;;;;;;;15.95;77.67;155458.94;4894734;29;20473;-79
2023/07/18 03:29:00;;;;;;;2.47;1.30;;;;;;;15.92;76.48;155451.13;4901593;29;20521;-79
2023/07/18 03:31:46;;;;;;;2.17;1.40;;;;;;;15.95;73.98;155457.63;4903423;29;20488;-79
2023/07/18 03:34:32;;;;;;;2.67;1.40;;;;;;;16.12;73.23;155503.16;4912193;29;20899;-78
2023/07/18 03:37:18;;;;;;;2.60;1.23;;;;;;;16.23;76.73;155530.47;4904551;29;20469;-78
2023/07/18 03:40:04;;;;;;;1.73;1.23;;;;;;;16.23;75.37;155530.47;4911452;29;20765;-79
2023/07/18 03:42:49;;;;;;;2.23;1.40;;;;;;;16.22;74.01;155527.84;4909760;29;20449;-79
2023/07/18 03:45:35;;;;;;;2.37;1.30;;;;;;;16.24;75.78;155534.34;4906551;29;20468;-79
2023/07/18 03:48:22;;;;;;;1.87;1.40;;;;;;;16.08;75.32;155492.75;4910048;29;20533;-74
2023/07/18 03:51:08;;;;;;;3.80;1.63;;;;;;;15.99;74.69;155469.31;4907193;29;20824;-74
2023/07/18 03:53:53;;;;;;;2.90;1.40;;;;;;;16.09;78.16;155494.06;4904131;29;20810;-74
2023/07/18 03:56:39;;;;;;;2.77;1.60;;;;;;;16.01;78.45;155473.25;4902158;29;20507;-74
2023/07/18 03:59:24;;;;;;;3.27;1.80;;;;;;;15.97;79.52;155462.81;4904700;29;20816;-74
2023/07/18 04:02:09;;;;;;;2.30;1.70;;;;;;;15.86;77.99;155434.25;4891138;29;20481;-74
2023/07/18 04:04:54;;;;;;;1.90;1.40;;;;;;;15.75;76.79;155408.22;4898068;29;20516;-74
2023/07/18 04:07:41;;;;;;;3.43;2.00;;;;;;;15.75;78.44;155408.22;4906021;29;20480;-74
2023/07/18 04:10:26;;;;;;;3.33;1.70;;;;;;;15.71;78.35;155397.84;4908057;29;20457;-74
2023/07/18 04:13:11;;;;;;;2.77;1.90;;;;;;;15.74;79.78;155404.34;4910553;29;20963;-74
2023/07/18 04:15:59;;;;;;;2.30;1.87;;;;;;;15.73;80.70;155403.03;4904441;29;20448;-74
2023/07/18 04:18:44;;;;;;;2.80;2.20;;;;;;;15.73;81.88;155403.03;4907692;29;20553;-74
2023/07/18 04:21:29;;;;;;;3.00;2.40;;;;;;;15.75;81.25;155406.97;4910044;29;20951;-74
2023/07/18 04:24:16;;;;;;;3.97;3.13;;;;;;;15.81;80.46;155422.53;4915271;29;20459;-74
2023/07/18 04:27:01;;;;;;;3.17;2.50;;;;;;;16.00;81.76;155470.63;4915858;29;20527;-74
2023/07/18 04:29:46;;;;;;;5.60;3.33;;;;;;;16.04;82.28;155481.06;4911838;29;20589;-74
2023/07/18 04:32:31;;;;;;;5.30;3.13;;;;;;;16.20;84.45;155522.66;4912650;29;20465;-74
2023/07/18 04:35:16;;;;;;;4.77;3.17;;;;;;;16.34;81.84;155560.34;4913777;29;20581;-74
2023/07/18 04:38:02;;;;;;;4.00;2.60;;;;;;;16.64;82.36;155635.84;4909562;29;20452;-74
2023/07/18 04:40:49;;;;;;;4.63;3.20;;;;;;;16.90;80.81;155704.81;4913937;29;20564;-74
2023/07/18 04:43:36;;;;;;;5.33;3.67;;;;;;;17.21;78.70;155784.16;4913791;29;20983;-74
2023/07/18 04:46:21;;;;;;;5.20;3.40;;;;;;;17.53;77.98;155867.53;4910624;29;20453;-74
2023/07/18 04:49:07;;;;;;;5.73;3.50;;;;;;;17.89;75.87;155959.97;4913302;29;20605;-74
2023/07/18 04:51:52;;;;;;;4.43;3.40;;;;;;;18.09;74.38;156012.03;4898185;29;20528;-75
2023/07/18 04:54:37;;;;;;;4.20;3.40;;;;;;;18.36;76.16;156079.75;4911816;29;21085;-75
2023/07/18 04:57:24;;;;;;;5.10;3.17;;;;;;;18.50;74.13;156116.31;4909853;29;20496;-75
2023/07/18 05:00:15;;;;;;;5.13;3.33;;;;;;;18.62;73.02;156147.53;4907205;29;20545;-75
2023/07/18 05:03:01;;;;;;;5.40;3.57;;;;;;;18.81;72.66;156197.06;4916660;29;20553;-75
2023/07/18 05:05:46;;;;;;;4.00;2.87;;;;;;;18.97;70.16;156238.75;4918182;29;20476;-75
2023/07/18 05:08:31;;;;;;;7.23;3.33;;;;;;;19.23;70.46;156306.53;4921173;29;20913;-76
2023/07/18 05:11:16;;;;;;;3.70;3.30;;;;;;;19.42;67.88;156354.78;4917574;29;20924;-75
2023/07/18 05:14:03;;;;;;;5.73;3.10;;;;;;;19.68;66.95;156421.25;4918491;29;20447;-75
2023/07/18 05:16:49;;;;;;;5.40;3.70;;;;;;;19.84;67.63;156463.00;4919523;29;20447;-76
2023/07/18 05:19:35;;;;;;;3.17;2.87;;;;;;;19.90;66.44;156478.66;4917330;29;20524;-76
2023/07/18 05:22:20;;;;;;;6.10;2.93;;;;;;;19.95;65.91;156493.00;4922012;29;20991;-75
2023/07/18 05:25:06;;;;;;;3.20;2.47;;;;;;;20.14;65.46;156541.25;4916246;29;20479;-76
2023/07/18 05:27:51;;;;;;;3.87;2.80;;;;;;;20.27;66.36;156573.88;4913268;29;21085;-76
2023/07/18 05:30:38;;;;;;;3.83;2.77;;;;;;;20.45;66.71;156620.84;4919172;29;20457;-76
2023/07/18 05:33:23;;;;;;;5.33;3.20;;;;;;;20.53;64.62;156641.72;4917327;29;20511;-76
2023/07/18 05:36:09;;;;;;;4.03;3.17;;;;;;;20.70;62.96;156684.78;4904411;29;20452;-76
2023/07/18 05:38:55;;;;;;;6.50;3.00;;;;;;;20.87;62.63;156730.41;4916708;29;20512;-76
2023/07/18 05:41:40;;;;;;;4.13;2.57;;;;;;;20.95;64.04;156750.00;4918710;29;20463;-76
2023/07/18 05:44:25;;;;;;;4.23;3.00;;;;;;;21.06;61.95;156780.06;4919159;29;20464;-76
2023/07/18 05:47:12;;;;;;;5.67;2.83;;;;;;;21.21;62.21;156819.22;4914033;29;20456;-76
2023/07/18 05:49:57;;;;;;;4.07;2.80;;;;;;;21.34;61.17;156851.81;4919633;29;20464;-76
2023/07/18 05:52:46;;;;;;;2.93;2.13;;;;;;;21.48;61.82;156887.06;4918667;29;20529;-76
2023/07/18 05:55:31;;;;;;;4.50;2.73;;;;;;;21.63;60.30;156927.53;4917033;29;21531;-76
2023/07/18 05:58:17;;;;;;;5.53;2.77;;;;;;;21.79;60.76;156968.00;4920746;29;20448;-76
2023/07/18 06:01:02;;;;;;;3.70;3.17;;;;;;;21.89;57.99;156992.88;4914719;29;21053;-76
2023/07/18 06:03:49;;;;;;;7.13;3.13;;;;;;;21.81;60.53;156973.25;4919361;29;20447;-76
2023/07/18 06:06:34;;;;;;;6.90;2.90;;;;;;;21.92;60.31;157000.72;4919625;29;20512;-76
2023/07/18 06:09:20;;;;;;;3.70;2.83;;;;;;;22.00;61.99;157021.63;4917068;29;20463;-76
2023/07/18 06:12:06;;;;;;;4.40;3.10;;;;;;;22.08;61.59;157042.53;4921007;29;20959;-75
2023/07/18 06:14:51;;;;;;;6.47;3.40;;;;;;;22.16;60.75;157063.41;4918280;29;20452;-76
2023/07/18 06:17:37;;;;;;;3.90;3.30;;;;;;;22.38;60.11;157120.84;4918507;29;20853;-76
2023/07/18 06:20:23;;;;;;;5.70;3.70;;;;;;;22.54;59.24;157162.66;4907558;29;20473;-76
2023/07/18 06:23:09;;;;;;;6.73;3.63;;;;;;;22.45;59.34;157139.16;4913588;29;20967;-76
2023/07/18 06:25:54;;;;;;;4.23;2.97;;;;;;;22.55;58.81;157165.28;4916973;29;21031;-76
2023/07/18 06:28:39;;;;;;;6.20;3.40;;;;;;;22.63;57.97;157184.94;4908725;29;20468;-76
2023/07/18 06:31:24;;;;;;;3.27;2.67;;;;;;;22.87;56.85;157247.66;4916498;29;21083;-76
2023/07/18 06:34:10;;;;;;;5.07;3.30;;;;;;;22.82;56.86;157235.84;4912528;29;20824;-76
2023/07/18 06:36:59;;;;;;;3.93;2.87;;;;;;;22.89;55.11;157252.84;4914258;29;20452;-76
2023/07/18 06:39:44;;;;;;;3.80;3.07;;;;;;;22.95;53.92;157268.56;4914588;29;20659;-76
2023/07/18 06:42:29;;;;;;;4.00;2.80;;;;;;;23.17;53.47;157324.69;4917973;29;20444;-84
2023/07/18 06:45:15;;;;;;;3.60;3.20;;;;;;;23.29;52.91;157356.09;4916426;29;20975;-84
2023/07/18 06:48:00;;;;;;;3.77;3.13;;;;;;;23.37;52.05;157378.38;4914813;29;20588;-83
2023/07/18 06:50:46;;;;;;;3.40;2.70;;;;;;;23.41;52.53;157387.50;4915329;29;21025;-83
2023/07/18 06:53:32;;;;;;;9.50;3.33;;;;;;;23.45;52.81;157397.97;4912537;29;20491;-82
2023/07/18 06:56:18;;;;;;;5.67;3.03;;;;;;;23.47;51.85;157404.50;4914299;29;20976;-83
2023/07/18 06:59:03;;;;;;;7.83;2.87;;;;;;;23.49;51.86;157408.41;4902547;29;20471;-83
2023/07/18 07:01:48;;;;;;;4.00;2.77;;;;;;;23.56;52.29;157426.75;4903820;29;20452;-81
2023/07/18 07:04:34;;;;;;;6.93;3.30;;;;;;;23.78;51.42;157484.22;4914920;29;20457;-82
2023/07/18 07:07:20;;;;;;;5.10;3.30;;;;;;;23.79;51.81;157486.88;4916311;29;20957;-83
2023/07/18 07:10:09;;;;;;;5.60;3.17;;;;;;;23.98;52.12;157536.56;4907197;29;20467;-83
2023/07/18 07:12:54;;;;;;;4.97;2.67;;;;;;;24.19;50.01;157591.53;4905764;29;20472;-83
2023/07/18 07:15:40;;;;;;;3.70;2.90;;;;;;;24.28;48.16;157612.44;4914721;29;20460;-83
2023/07/18 07:18:26;;;;;;;4.70;3.30;;;;;;;24.31;48.03;157620.25;4914964;29;20488;-82
2023/07/18 07:21:11;;;;;;;3.53;2.63;;;;;;;24.55;48.37;157683.03;4891097;29;20456;-83
2023/07/18 07:23:56;;;;;;;3.40;2.60;;;;;;;24.73;47.14;157730.13;4912479;29;20484;-83
2023/07/18 07:26:43;;;;;;;3.50;2.70;;;;;;;24.65;48.02;157709.19;4919053;29;20443;-83
2023/07/18 07:29:29;;;;;;;5.83;2.63;;;;;;;24.69;46.62;157721.00;4918788;29;20623;-83
2023/07/18 07:32:14;;;;;;;4.40;2.43;;;;;;;24.83;48.45;157755.06;4918584;29;20464;-82
2023/07/18 07:34:59;;;;;;;4.60;2.93;;;;;;;25.14;45.93;157837.50;4913512;29;20539;-83
2023/07/18 07:37:44;;;;;;;3.00;2.30;;;;;;;25.25;45.23;157866.28;4909453;29;20959;-82
2023/07/18 07:40:33;;;;;;;3.40;2.53;;;;;;;25.18;45.07;157847.94;4916027;29;20577;-80
2023/07/18 07:43:19;;;;;;;6.20;2.97;;;;;;;25.27;44.71;157871.53;4915585;29;20577;-80
2023/07/18 07:46:05;;;;;;;4.10;2.47;;;;;;;25.41;44.48;157908.19;4915309;29;20448;-80
2023/07/18 07:48:50;;;;;;;5.13;3.23;;;;;;;25.44;44.97;157914.72;4903906;29;20459;-79
2023/07/18 07:51:35;;;;;;;8.93;2.80;;;;;;;25.51;44.56;157931.75;4920797;29;20443;-80
2023/07/18 07:54:21;;;;;;;3.93;2.63;;;;;;;25.86;45.49;158023.41;4912978;29;20500;-80
2023/07/18 07:57:06;;;;;;;3.43;2.80;;;;;;;25.99;44.03;158057.44;4917408;29;20470;-80
2023/07/18 07:59:53;;;;;;;3.10;2.80;;;;;;;26.01;42.92;158062.66;4904340;29;20601;-77
2023/07/18 08:02:39;;;;;;;2.93;2.17;;;;;;;26.07;42.60;158078.41;4901077;29;20448;-76
2023/07/18 08:05:24;;;;;;;3.00;2.37;;;;;;;26.08;41.30;158080.97;4914127;29;20480;-77
2023/07/18 08:08:10;;;;;;;5.53;2.37;;;;;;;25.64;41.21;157965.78;4914544;29;20863;-77
2023/07/18 08:10:55;;;;;;;4.23;2.20;;;;;;;25.90;41.78;158035.19;4911731;29;20460;-77
2023/07/18 08:13:40;;;;;;;3.93;2.00;;;;;;;25.96;41.45;158049.59;4905367;29;20488;-77
2023/07/18 08:16:27;;;;;;;5.30;2.80;;;;;;;26.35;41.32;158151.75;4911914;29;20901;-75
2023/07/18 08:19:12;;;;;;;3.20;1.93;;;;;;;26.68;40.53;158235.59;4912198;29;20455;-76
2023/07/18 08:21:57;;;;;;;4.27;2.30;;;;;;;26.59;39.72;158213.31;4919275;29;20471;-76
2023/07/18 08:24:43;;;;;;;3.13;1.90;;;;;;;26.41;39.71;158166.16;4913397;29;20728;-76
2023/07/18 08:27:32;;;;;;;3.07;2.00;;;;;;;26.30;39.68;158138.66;4915012;29;21074;-76
2023/07/18 08:30:19;;;;;;;5.83;2.60;;;;;;;26.48;40.12;158185.81;4914944;29;20489;-76
2023/07/18 08:33:06;;;;;;;4.20;2.20;;;;;;;26.31;39.71;158141.31;4916713;29;20472;-76
2023/07/18 08:35:53;;;;;;;2.77;2.17;;;;;;;26.47;40.27;158183.22;4916191;29;20810;-76
2023/07/18 08:38:38;;;;;;;3.00;2.10;;;;;;;26.89;40.27;158290.66;4918459;29;20464;-76
2023/07/18 08:41:24;;;;;;;6.37;2.60;;;;;;;26.86;42.42;158282.78;4918494;29;20930;-76
2023/07/18 08:44:11;;;;;;;3.33;2.50;;;;;;;26.81;39.52;158269.69;4916486;29;20464;-76
2023/07/18 08:46:56;;;;;;;2.33;2.10;;;;;;;26.76;39.69;158256.53;4918969;29;20452;-76
2023/07/18 08:49:43;;;;;;;5.83;2.40;;;;;;;26.89;40.40;158290.66;4916711;29;20559;-77
2023/07/18 08:52:28;;;;;;;3.33;2.10;;;;;;;26.89;39.48;158291.97;4920279;29;21001;-79
2023/07/18 08:55:13;;;;;;;3.30;2.83;;;;;;;27.22;39.73;158377.09;4916942;29;21107;-80
2023/07/18 08:58:00;;;;;;;3.90;2.43;;;;;;;27.28;39.62;158392.84;4917507;29;20599;-81
2023/07/18 09:00:45;;;;;;;5.70;2.37;;;;;;;27.20;39.88;158371.88;4918301;29;21336;-81
2023/07/18 09:03:30;;;;;;;3.50;1.93;;;;;;;27.17;38.85;158365.31;4922284;29;20583;-80
2023/07/18 09:06:21;;;;;;;2.60;2.40;;;;;;;27.37;39.05;158416.44;4899549;29;20496;-81
2023/07/18 09:09:15;;;;;;;3.53;2.30;;;;;;;27.54;40.05;158461.03;4902201;29;20465;-81
2023/07/18 09:12:02;;;;;;;6.47;2.30;;;;;;;27.66;38.45;158491.19;4902602;29;20870;-81
2023/07/18 09:14:47;;;;;;;3.07;2.43;;;;;;;27.35;38.87;158411.16;4902974;29;20461;-81
2023/07/18 09:17:35;;;;;;;3.83;2.20;;;;;;;27.48;38.70;158445.28;4902010;29;20448;-80
2023/07/18 09:20:21;;;;;;;4.80;2.10;;;;;;;27.67;38.53;158495.09;4899041;29;21023;-80
2023/07/18 09:23:07;;;;;;;2.40;1.97;;;;;;;27.36;38.41;158413.81;4900897;29;20457;-80
2023/07/18 09:25:55;;;;;;;3.03;2.60;;;;;;;27.10;39.37;158347.00;4899990;29;20475;-80
2023/07/18 09:28:41;;;;;;;4.30;3.00;;;;;;;27.22;38.99;158377.09;4901050;29;20597;-80
2023/07/18 09:31:27;;;;;;;2.97;2.30;;;;;;;27.28;39.05;158391.50;4897449;29;20453;-80
2023/07/18 09:34:13;;;;;;;6.57;2.77;;;;;;;27.29;39.35;158394.16;4897530;29;21065;-80
2023/07/18 09:37:00;;;;;;;4.70;2.50;;;;;;;27.57;45.50;158468.91;4898146;29;21300;-80
2023/07/18 09:39:47;;;;;;;2.50;2.30;;;;;;;27.69;39.83;158500.31;4894043;29;20469;-80
2023/07/18 09:42:32;;;;;;;2.87;2.50;;;;;;;27.62;40.14;158482.00;4897210;29;20449;-81
2023/07/18 09:45:18;;;;;;;3.20;2.60;;;;;;;27.72;39.33;158506.94;4898506;29;20457;-82
2023/07/18 09:48:04;;;;;;;3.60;2.53;;;;;;;28.02;44.78;158584.28;4892485;29;20441;-82
2023/07/18 09:50:51;;;;;;;4.13;2.60;;;;;;;28.18;41.12;158626.22;4896945;29;20818;-83
2023/07/18 09:53:37;;;;;;;3.63;2.90;;;;;;;28.07;38.63;158597.38;4897589;29;20548;-82
2023/07/18 09:56:25;;;;;;;4.60;2.73;;;;;;;28.02;40.99;158584.28;4898672;29;20564;-79
2023/07/18 09:59:10;;;;;;;6.40;2.90;;;;;;;28.14;40.24;158615.78;4898844;29;20476;-81
2023/07/18 10:01:56;;;;;;;5.40;3.00;;;;;;;28.13;39.14;158614.44;4893566;29;20457;-82
2023/07/18 10:04:42;;;;;;;6.33;2.83;;;;;;;28.13;40.44;158614.44;4898945;29;20593;-82
2023/07/18 10:07:29;;;;;;;2.97;2.67;;;;;;;28.09;47.58;158603.94;4911869;29;20882;-81
2023/07/18 10:10:14;;;;;;;4.27;3.10;;;;;;;28.06;45.88;158596.13;4887125;29;20996;-81
2023/07/18 10:13:02;;;;;;;3.30;3.00;;;;;;;27.93;41.55;158561.97;4916428;29;20467;-81
2023/07/18 10:16:19;;;;;;;4.20;3.77;;;;;;;27.97;47.23;158571.13;4915123;29;20447;-81
2023/07/18 10:19:16;;;;;;;4.03;2.80;;;;;;;27.66;40.83;158492.50;4913077;29;20951;-81
2023/07/18 10:22:02;;;;;;;3.47;3.13;;;;;;;27.40;41.26;158424.38;4914621;29;20462;-80
2023/07/18 10:24:49;;;;;;;3.40;3.10;;;;;;;27.37;40.96;158416.44;4915128;29;20455;-81
2023/07/18 10:27:37;;;;;;;3.20;2.90;;;;;;;27.33;52.57;158405.94;4913682;29;20464;-81
2023/07/18 10:30:24;;;;;;;4.27;2.90;;;;;;;27.03;42.67;158328.63;4913908;29;20459;-81
2023/07/18 10:33:09;;;;;;;4.70;3.20;;;;;;;26.85;42.81;158281.47;4907450;29;21017;-81
2023/07/18 10:35:54;;;;;;;4.40;2.90;;;;;;;26.61;43.71;158218.53;4911772;29;20948;-79
2023/07/18 10:38:40;;;;;;;3.43;2.83;;;;;;;25.98;44.48;158054.81;4913195;29;20953;-80
2023/07/18 10:41:25;;;;;;;4.13;2.90;;;;;;;25.80;46.03;158009.00;4914725;29;20967;-80
2023/07/18 10:44:12;;;;;;;3.90;2.80;;;;;;;25.67;46.51;157973.66;4915594;29;21290;-80
2023/07/18 10:46:59;;;;;;;3.80;3.37;;;;;;;25.67;45.84;157973.66;4914352;29;20595;-80
2023/07/18 10:49:47;;;;;;;3.37;2.70;;;;;;;25.70;45.89;157981.50;4916704;29;20463;-80
2023/07/18 10:52:32;;;;;;;4.00;2.97;;;;;;;25.94;44.99;158045.66;4913943;29;20448;-80
2023/07/18 10:55:18;;;;;;;6.07;2.90;;;;;;;25.93;45.82;158041.72;4909911;29;20504;-80
2023/07/18 10:58:05;;;;;;;4.83;3.10;;;;;;;26.03;45.92;158067.88;4912340;29;20451;-80
2023/07/18 11:00:51;;;;;;;4.57;3.30;;;;;;;26.11;47.14;158087.53;4916361;29;20794;-80
2023/07/18 11:03:39;;;;;;;3.87;3.10;;;;;;;26.28;44.91;158133.44;4918622;29;20473;-80
2023/07/18 11:06:24;;;;;;;4.27;3.03;;;;;;;26.56;51.49;158205.44;4916532;29;20535;-79
2023/07/18 11:09:12;;;;;;;6.43;3.03;;;;;;;26.63;53.80;158222.50;4917241;29;20464;-80
2023/07/18 11:11:58;;;;;;;3.87;3.50;;;;;;;26.66;48.14;158230.34;4913772;29;20447;-80
2023/07/18 11:14:44;;;;;;;4.47;3.50;;;;;;;26.74;54.17;158251.31;4914773;29;20486;-79
2023/07/18 11:17:31;;;;;;;7.87;4.17;;;;;;;26.71;53.60;158243.44;4904183;29;20596;-79
2023/07/18 11:20:17;;;;;;;5.43;3.40;;;;;;;26.56;48.17;158206.75;4917153;29;20556;-80
2023/07/18 11:23:03;;;;;;;5.10;3.50;;;;;;;26.48;50.30;158185.81;4915983;29;20824;-79
2023/07/18 11:25:49;;;;;;;4.73;3.00;;;;;;;26.39;51.62;158162.25;4917555;29;20444;-79
2023/07/18 11:28:34;;;;;;;5.17;3.60;;;;;;;26.38;57.05;158159.63;4919045;29;20453;-80
2023/07/18 11:31:24;;;;;;;4.57;3.00;;;;;;;26.26;52.99;158128.22;4916469;29;20456;-80
2023/07/18 11:34:09;;;;;;;4.70;3.43;;;;;;;26.21;55.08;158115.06;4916779;29;21060;-79
2023/07/18 11:36:56;;;;;;;4.87;3.80;;;;;;;26.11;53.85;158088.84;4919542;29;21003;-79
2023/07/18 11:39:47;;;;;;;4.33;3.30;;;;;;;26.01;48.91;158064.00;4916434;29;20487;-79
2023/07/18 11:42:46;;;;;;;3.80;3.10;;;;;;;25.85;49.75;158020.78;4917168;29;21196;-79
2023/07/18 11:45:32;;;;;;;6.17;3.50;;;;;;;25.79;52.21;158005.03;4919654;29;20943;-80
2023/07/18 11:48:20;;;;;;;4.97;3.90;;;;;;;25.70;51.17;157981.50;4915389;29;20449;-79
2023/07/18 11:51:05;;;;;;;3.37;2.83;;;;;;;25.61;50.47;157959.25;4917490;29;20520;-79
2023/07/18 11:53:54;;;;;;;4.77;3.50;;;;;;;25.35;57.84;157892.47;4916970;29;20850;-79
2023/07/18 11:56:39;;;;;;;4.33;3.40;;;;;;;25.35;66.57;157892.47;4918873;29;20461;-80
2023/07/18 11:59:24;;;;;;;6.23;3.40;;;;;;;25.33;64.98;157887.22;4918040;29;20539;-80
2023/07/18 12:02:10;;;;;;;7.50;4.00;;;;;;;25.26;58.74;157867.56;4922740;29;20519;-80
2023/07/18 12:04:55;;;;;;;4.33;3.00;;;;;;;25.27;56.18;157871.53;4916812;29;20485;-80
2023/07/18 12:07:40;;;;;;;4.93;4.10;;;;;;;25.29;55.56;157876.75;4917420;29;20488;-79
2023/07/18 12:10:27;;;;;;;4.00;3.10;;;;;;;25.38;55.42;157900.31;4918918;29;20652;-80
2023/07/18 12:13:12;;;;;;;6.80;3.70;;;;;;;25.29;56.22;157876.75;4918768;29;20459;-80
2023/07/18 12:15:58;;;;;;;10.77;4.20;;;;;;;25.29;54.84;157876.75;4910172;29;20453;-79
2023/07/18 12:18:43;;;;;;;6.50;4.73;;;;;;;25.28;53.39;157872.84;4915591;29;20518;-80
2023/07/18 12:21:28;;;;;;;7.00;4.00;;;;;;;25.21;54.38;157855.81;4916179;29;20448;-79
2023/07/18 12:24:14;;;;;;;4.27;3.77;;;;;;;25.25;55.22;157866.28;4914038;29;21168;-79
2023/07/18 12:27:00;;;;;;;4.87;3.70;;;;;;;25.31;53.67;157881.97;4913731;29;20469;-80
2023/07/18 12:29:46;;;;;;;6.40;3.90;;;;;;;25.41;55.38;157908.19;4914879;29;20466;-80
2023/07/18 12:32:31;;;;;;;5.53;3.73;;;;;;;25.53;51.37;157936.97;4918416;29;20455;-80
2023/07/18 12:35:16;;;;;;;5.47;3.83;;;;;;;25.67;55.19;157973.66;4920372;29;21085;-80
2023/07/18 12:38:03;;;;;;;5.93;3.80;;;;;;;25.75;52.73;157994.59;4916158;29;20800;-80
2023/07/18 12:40:48;;;;;;;6.43;4.73;;;;;;;25.85;53.04;158022.09;4919012;29;20440;-80
2023/07/18 12:43:35;;;;;;;6.57;3.30;;;;;;;25.94;56.88;158044.34;4920083;29;20592;-79
2023/07/18 12:46:26;;;;;;;4.07;3.60;;;;;;;25.97;53.88;158052.22;4917048;29;21015;-80
2023/07/18 12:49:12;;;;;;;3.90;3.50;;;;;;;26.06;51.33;158074.44;4919136;29;20444;-80
2023/07/18 12:51:57;;;;;;;4.03;3.37;;;;;;;26.18;55.14;158105.94;4919878;29;20516;-80